sensor_id;sensor_type;location;lat;lon;timestamp;temperature;humidity
21734;DHT22;11029;47.820;10.534;2022-11-18T00:01:41;6.20;85.10
21734;DHT22;11029;47.820;10.534;2022-11-18T00:04:08;6.20;85.60
21734;DHT22;11029;47.820;10.534;2022-11-18T00:06:34;6.20;85.50
21734;DHT22;11029;47.820;10.534;2022-11-18T00:09:01;6.30;85.20
21734;DHT22;11029;47.820;10.534;2022-11-18T00:11:28;6.40;85.60
21734;DHT22;11029;47.820;10.534;2022-11-18T00:14:23;6.30;85.10
21734;DHT22;11029;47.820;10.534;2022-11-18T00:19:17;6.40;84.90
21734;DHT22;11029;47.820;10.534;2022-11-18T00:21:44;6.40;84.40
21734;DHT22;11029;47.820;10.534;2022-11-18T00:24:11;6.30;84.30
21734;DHT22;11029;47.820;10.534;2022-11-18T00:26:38;6.30;84.40
21734;DHT22;11029;47.820;10.534;2022-11-18T00:29:04;6.30;84.90
21734;DHT22;11029;47.820;10.534;2022-11-18T00:31:31;6.30;85.10
21734;DHT22;11029;47.820;10.534;2022-11-18T00:33:58;6.30;85.30
21734;DHT22;11029;47.820;10.534;2022-11-18T00:36:24;6.30;85.60
21734;DHT22;11029;47.820;10.534;2022-11-18T00:38:51;6.30;85.30
21734;DHT22;11029;47.820;10.534;2022-11-18T00:41:18;6.30;85.80
21734;DHT22;11029;47.820;10.534;2022-11-18T00:43:45;6.20;85.70
21734;DHT22;11029;47.820;10.534;2022-11-18T00:46:12;6.20;85.70
21734;DHT22;11029;47.820;10.534;2022-11-18T00:48:39;6.20;85.70
21734;DHT22;11029;47.820;10.534;2022-11-18T00:51:16;6.20;85.70
21734;DHT22;11029;47.820;10.534;2022-11-18T00:53:43;6.10;86.20
21734;DHT22;11029;47.820;10.534;2022-11-18T00:56:10;6.20;85.80
21734;DHT22;11029;47.820;10.534;2022-11-18T00:58:37;6.20;86.70
21734;DHT22;11029;47.820;10.534;2022-11-18T01:01:04;6.20;86.30
21734;DHT22;11029;47.820;10.534;2022-11-18T01:03:30;6.20;86.50
21734;DHT22;11029;47.820;10.534;2022-11-18T01:05:57;6.30;86.10
21734;DHT22;11029;47.820;10.534;2022-11-18T01:08:24;6.30;86.20
21734;DHT22;11029;47.820;10.534;2022-11-18T01:10:51;6.20;86.00
21734;DHT22;11029;47.820;10.534;2022-11-18T01:13:18;6.10;86.50
21734;DHT22;11029;47.820;10.534;2022-11-18T01:15:52;6.10;87.50
21734;DHT22;11029;47.820;10.534;2022-11-18T01:18:20;6.10;87.00
21734;DHT22;11029;47.820;10.534;2022-11-18T01:20:47;6.10;87.40
21734;DHT22;11029;47.820;10.534;2022-11-18T01:23:14;6.10;87.70
21734;DHT22;11029;47.820;10.534;2022-11-18T01:25:42;6.20;87.70
21734;DHT22;11029;47.820;10.534;2022-11-18T01:28:09;6.20;87.20
21734;DHT22;11029;47.820;10.534;2022-11-18T01:30:37;6.20;87.20
21734;DHT22;11029;47.820;10.534;2022-11-18T01:33:04;6.30;87.30
21734;DHT22;11029;47.820;10.534;2022-11-18T01:35:34;6.30;86.80
21734;DHT22;11029;47.820;10.534;2022-11-18T01:38:02;6.30;87.30
21734;DHT22;11029;47.820;10.534;2022-11-18T01:40:29;6.40;87.00
21734;DHT22;11029;47.820;10.534;2022-11-18T01:42:56;6.40;86.70
21734;DHT22;11029;47.820;10.534;2022-11-18T01:47:57;6.40;85.70
21734;DHT22;11029;47.820;10.534;2022-11-18T01:50:24;6.30;86.10
21734;DHT22;11029;47.820;10.534;2022-11-18T01:52:52;6.30;85.90
21734;DHT22;11029;47.820;10.534;2022-11-18T01:55:22;6.30;85.60
21734;DHT22;11029;47.820;10.534;2022-11-18T01:57:50;6.30;86.00
21734;DHT22;11029;47.820;10.534;2022-11-18T02:00:20;6.40;85.90
21734;DHT22;11029;47.820;10.534;2022-11-18T02:02:46;6.40;85.70
21734;DHT22;11029;47.820;10.534;2022-11-18T02:05:13;6.40;85.50
21734;DHT22;11029;47.820;10.534;2022-11-18T02:07:41;6.30;85.90
21734;DHT22;11029;47.820;10.534;2022-11-18T02:10:14;6.30;86.30
21734;DHT22;11029;47.820;10.534;2022-11-18T02:12:42;6.30;86.10
21734;DHT22;11029;47.820;10.534;2022-11-18T02:15:08;6.30;85.90
21734;DHT22;11029;47.820;10.534;2022-11-18T02:17:51;6.30;85.60
21734;DHT22;11029;47.820;10.534;2022-11-18T02:20:23;6.30;86.40
21734;DHT22;11029;47.820;10.534;2022-11-18T02:31:06;6.20;86.30
21734;DHT22;11029;47.820;10.534;2022-11-18T02:39:04;6.20;87.00
21734;DHT22;11029;47.820;10.534;2022-11-18T02:41:31;6.20;87.10
21734;DHT22;11029;47.820;10.534;2022-11-18T02:44:03;6.20;87.20
21734;DHT22;11029;47.820;10.534;2022-11-18T02:46:32;6.20;87.00
21734;DHT22;11029;47.820;10.534;2022-11-18T02:49:03;6.10;86.80
21734;DHT22;11029;47.820;10.534;2022-11-18T02:51:31;6.10;87.30
21734;DHT22;11029;47.820;10.534;2022-11-18T02:53:59;6.10;87.20
21734;DHT22;11029;47.820;10.534;2022-11-18T02:56:28;6.10;87.90
21734;DHT22;11029;47.820;10.534;2022-11-18T02:58:55;6.10;88.00
21734;DHT22;11029;47.820;10.534;2022-11-18T03:01:23;6.10;87.40
21734;DHT22;11029;47.820;10.534;2022-11-18T03:03:51;6.10;88.00
21734;DHT22;11029;47.820;10.534;2022-11-18T03:08:56;6.10;88.30
21734;DHT22;11029;47.820;10.534;2022-11-18T03:11:30;6.10;88.50
21734;DHT22;11029;47.820;10.534;2022-11-18T03:14:01;6.10;88.60
21734;DHT22;11029;47.820;10.534;2022-11-18T03:19:19;6.00;88.60
21734;DHT22;11029;47.820;10.534;2022-11-18T03:22:00;6.00;88.20
21734;DHT22;11029;47.820;10.534;2022-11-18T03:24:29;5.90;87.90
21734;DHT22;11029;47.820;10.534;2022-11-18T03:27:01;5.90;87.70
21734;DHT22;11029;47.820;10.534;2022-11-18T03:29:31;5.90;87.50
21734;DHT22;11029;47.820;10.534;2022-11-18T03:32:03;5.90;87.10
21734;DHT22;11029;47.820;10.534;2022-11-18T03:36:59;5.80;87.20
21734;DHT22;11029;47.820;10.534;2022-11-18T03:39:30;5.80;86.50
21734;DHT22;11029;47.820;10.534;2022-11-18T03:42:06;5.80;86.40
21734;DHT22;11029;47.820;10.534;2022-11-18T03:44:35;5.80;86.10
21734;DHT22;11029;47.820;10.534;2022-11-18T03:47:08;5.80;85.90
21734;DHT22;11029;47.820;10.534;2022-11-18T03:49:42;5.60;86.60
21734;DHT22;11029;47.820;10.534;2022-11-18T03:52:13;5.60;85.40
21734;DHT22;11029;47.820;10.534;2022-11-18T03:54:41;5.60;85.40
21734;DHT22;11029;47.820;10.534;2022-11-18T03:57:12;5.60;85.70
21734;DHT22;11029;47.820;10.534;2022-11-18T03:59:40;5.60;85.10
21734;DHT22;11029;47.820;10.534;2022-11-18T04:04:35;5.50;84.20
21734;DHT22;11029;47.820;10.534;2022-11-18T04:07:04;5.40;84.30
21734;DHT22;11029;47.820;10.534;2022-11-18T04:09:42;5.40;84.30
21734;DHT22;11029;47.820;10.534;2022-11-18T04:12:12;5.30;83.90
21734;DHT22;11029;47.820;10.534;2022-11-18T04:14:41;5.40;83.80
21734;DHT22;11029;47.820;10.534;2022-11-18T04:17:15;5.40;83.20
21734;DHT22;11029;47.820;10.534;2022-11-18T04:19:42;5.30;83.70
21734;DHT22;11029;47.820;10.534;2022-11-18T04:22:09;5.40;83.20
21734;DHT22;11029;47.820;10.534;2022-11-18T04:24:36;5.40;83.50
21734;DHT22;11029;47.820;10.534;2022-11-18T04:27:03;5.30;83.50
21734;DHT22;11029;47.820;10.534;2022-11-18T04:29:30;5.30;83.60
21734;DHT22;11029;47.820;10.534;2022-11-18T04:31:57;5.20;84.20
21734;DHT22;11029;47.820;10.534;2022-11-18T04:34:24;5.30;83.80
21734;DHT22;11029;47.820;10.534;2022-11-18T04:36:50;5.30;84.30
21734;DHT22;11029;47.820;10.534;2022-11-18T04:39:17;5.30;83.60
21734;DHT22;11029;47.820;10.534;2022-11-18T04:41:44;5.30;83.60
21734;DHT22;11029;47.820;10.534;2022-11-18T04:44:27;5.30;84.20
21734;DHT22;11029;47.820;10.534;2022-11-18T04:46:55;5.40;84.50
21734;DHT22;11029;47.820;10.534;2022-11-18T04:49:22;5.30;84.70
21734;DHT22;11029;47.820;10.534;2022-11-18T04:51:49;5.40;84.10
21734;DHT22;11029;47.820;10.534;2022-11-18T04:54:15;5.30;84.00
21734;DHT22;11029;47.820;10.534;2022-11-18T04:56:42;5.40;84.00
21734;DHT22;11029;47.820;10.534;2022-11-18T04:59:16;5.40;84.50
21734;DHT22;11029;47.820;10.534;2022-11-18T05:01:43;5.40;84.40
21734;DHT22;11029;47.820;10.534;2022-11-18T05:04:11;5.40;84.60
21734;DHT22;11029;47.820;10.534;2022-11-18T05:06:38;5.50;84.70
21734;DHT22;11029;47.820;10.534;2022-11-18T05:09:05;5.50;84.20
21734;DHT22;11029;47.820;10.534;2022-11-18T05:11:31;5.40;84.00
21734;DHT22;11029;47.820;10.534;2022-11-18T05:14:17;5.50;84.10
21734;DHT22;11029;47.820;10.534;2022-11-18T05:16:43;5.50;84.30
21734;DHT22;11029;47.820;10.534;2022-11-18T05:19:10;5.50;83.80
21734;DHT22;11029;47.820;10.534;2022-11-18T05:21:37;5.50;84.20
21734;DHT22;11029;47.820;10.534;2022-11-18T05:24:03;5.50;83.80
21734;DHT22;11029;47.820;10.534;2022-11-18T05:26:30;5.60;83.90
21734;DHT22;11029;47.820;10.534;2022-11-18T05:28:57;5.60;83.60
21734;DHT22;11029;47.820;10.534;2022-11-18T05:31:23;5.60;83.80
21734;DHT22;11029;47.820;10.534;2022-11-18T05:33:50;5.60;83.80
21734;DHT22;11029;47.820;10.534;2022-11-18T05:36:17;5.70;83.40
21734;DHT22;11029;47.820;10.534;2022-11-18T05:38:44;5.70;83.80
21734;DHT22;11029;47.820;10.534;2022-11-18T05:41:11;5.70;83.40
21734;DHT22;11029;47.820;10.534;2022-11-18T05:44:01;5.70;83.20
21734;DHT22;11029;47.820;10.534;2022-11-18T05:46:29;5.70;84.00
21734;DHT22;11029;47.820;10.534;2022-11-18T05:48:55;5.70;83.50
21734;DHT22;11029;47.820;10.534;2022-11-18T05:51:22;5.80;83.70
21734;DHT22;11029;47.820;10.534;2022-11-18T05:53:49;5.80;83.60
21734;DHT22;11029;47.820;10.534;2022-11-18T05:56:24;5.80;83.60
21734;DHT22;11029;47.820;10.534;2022-11-18T05:58:52;5.90;83.40
21734;DHT22;11029;47.820;10.534;2022-11-18T06:01:20;6.00;82.90
21734;DHT22;11029;47.820;10.534;2022-11-18T06:03:47;5.90;83.30
21734;DHT22;11029;47.820;10.534;2022-11-18T06:06:15;6.00;82.50
21734;DHT22;11029;47.820;10.534;2022-11-18T06:08:44;5.90;82.50
21734;DHT22;11029;47.820;10.534;2022-11-18T06:11:12;5.90;82.40
21734;DHT22;11029;47.820;10.534;2022-11-18T06:13:41;5.80;83.20
21734;DHT22;11029;47.820;10.534;2022-11-18T06:16:14;5.80;83.60
21734;DHT22;11029;47.820;10.534;2022-11-18T06:18:40;5.70;83.80
21734;DHT22;11029;47.820;10.534;2022-11-18T06:21:07;5.80;84.00
21734;DHT22;11029;47.820;10.534;2022-11-18T06:23:34;5.70;84.30
21734;DHT22;11029;47.820;10.534;2022-11-18T06:26:02;5.70;84.70
21734;DHT22;11029;47.820;10.534;2022-11-18T06:28:29;5.70;84.80
21734;DHT22;11029;47.820;10.534;2022-11-18T06:30:56;5.70;84.60
21734;DHT22;11029;47.820;10.534;2022-11-18T06:33:24;5.70;83.90
21734;DHT22;11029;47.820;10.534;2022-11-18T06:35:51;5.70;84.00
21734;DHT22;11029;47.820;10.534;2022-11-18T06:38:17;5.70;84.10
21734;DHT22;11029;47.820;10.534;2022-11-18T06:40:44;5.70;84.20
21734;DHT22;11029;47.820;10.534;2022-11-18T06:43:11;5.70;83.80
21734;DHT22;11029;47.820;10.534;2022-11-18T06:45:59;5.70;83.80
21734;DHT22;11029;47.820;10.534;2022-11-18T06:48:45;5.70;83.60
21734;DHT22;11029;47.820;10.534;2022-11-18T06:51:12;5.70;83.10
21734;DHT22;11029;47.820;10.534;2022-11-18T06:53:39;5.70;83.70
21734;DHT22;11029;47.820;10.534;2022-11-18T06:56:06;5.70;83.70
21734;DHT22;11029;47.820;10.534;2022-11-18T06:58:33;5.70;83.60
21734;DHT22;11029;47.820;10.534;2022-11-18T07:01:14;5.70;83.20
21734;DHT22;11029;47.820;10.534;2022-11-18T07:03:41;5.70;82.80
21734;DHT22;11029;47.820;10.534;2022-11-18T07:06:08;5.70;83.00
21734;DHT22;11029;47.820;10.534;2022-11-18T07:08:36;5.70;82.90
21734;DHT22;11029;47.820;10.534;2022-11-18T07:11:04;5.70;82.90
21734;DHT22;11029;47.820;10.534;2022-11-18T07:13:31;5.70;82.60
21734;DHT22;11029;47.820;10.534;2022-11-18T07:16:08;5.60;82.40
21734;DHT22;11029;47.820;10.534;2022-11-18T07:18:35;5.60;81.90
21734;DHT22;11029;47.820;10.534;2022-11-18T07:21:03;5.60;81.10
21734;DHT22;11029;47.820;10.534;2022-11-18T07:23:31;5.60;81.80
21734;DHT22;11029;47.820;10.534;2022-11-18T07:25:58;5.60;81.60
21734;DHT22;11029;47.820;10.534;2022-11-18T07:28:24;5.60;81.80
21734;DHT22;11029;47.820;10.534;2022-11-18T07:30:51;5.60;81.70
21734;DHT22;11029;47.820;10.534;2022-11-18T07:33:18;5.60;82.20
21734;DHT22;11029;47.820;10.534;2022-11-18T07:35:45;5.60;82.20
21734;DHT22;11029;47.820;10.534;2022-11-18T07:38:11;5.50;82.40
21734;DHT22;11029;47.820;10.534;2022-11-18T07:40:38;5.50;82.50
21734;DHT22;11029;47.820;10.534;2022-11-18T07:43:05;5.60;82.40
21734;DHT22;11029;47.820;10.534;2022-11-18T07:45:33;5.60;82.70
21734;DHT22;11029;47.820;10.534;2022-11-18T07:48:00;5.50;83.20
21734;DHT22;11029;47.820;10.534;2022-11-18T07:50:27;5.50;83.00
21734;DHT22;11029;47.820;10.534;2022-11-18T07:52:54;5.50;83.10
21734;DHT22;11029;47.820;10.534;2022-11-18T07:55:21;5.50;83.00
21734;DHT22;11029;47.820;10.534;2022-11-18T07:57:47;5.60;82.50
21734;DHT22;11029;47.820;10.534;2022-11-18T08:00:14;5.60;82.70
21734;DHT22;11029;47.820;10.534;2022-11-18T08:02:41;5.60;83.20
21734;DHT22;11029;47.820;10.534;2022-11-18T08:05:09;5.60;83.00
21734;DHT22;11029;47.820;10.534;2022-11-18T08:07:43;5.70;82.40
21734;DHT22;11029;47.820;10.534;2022-11-18T08:10:10;5.70;82.00
21734;DHT22;11029;47.820;10.534;2022-11-18T08:12:36;5.80;82.00
21734;DHT22;11029;47.820;10.534;2022-11-18T08:15:03;5.90;81.90
21734;DHT22;11029;47.820;10.534;2022-11-18T08:17:31;5.90;82.00
21734;DHT22;11029;47.820;10.534;2022-11-18T08:19:57;5.90;81.70
21734;DHT22;11029;47.820;10.534;2022-11-18T08:22:24;6.00;80.90
21734;DHT22;11029;47.820;10.534;2022-11-18T08:24:50;6.10;81.30
21734;DHT22;11029;47.820;10.534;2022-11-18T08:27:17;6.10;80.50
21734;DHT22;11029;47.820;10.534;2022-11-18T08:29:44;6.00;80.60
21734;DHT22;11029;47.820;10.534;2022-11-18T08:32:10;6.00;81.40
21734;DHT22;11029;47.820;10.534;2022-11-18T08:34:37;5.90;80.70
21734;DHT22;11029;47.820;10.534;2022-11-18T08:37:04;5.90;81.50
21734;DHT22;11029;47.820;10.534;2022-11-18T08:39:30;5.90;80.90
21734;DHT22;11029;47.820;10.534;2022-11-18T08:41:57;5.90;81.70
21734;DHT22;11029;47.820;10.534;2022-11-18T08:44:24;5.80;81.70
21734;DHT22;11029;47.820;10.534;2022-11-18T08:46:50;5.70;82.30
21734;DHT22;11029;47.820;10.534;2022-11-18T08:49:17;5.80;82.00
21734;DHT22;11029;47.820;10.534;2022-11-18T08:51:44;5.70;82.50
21734;DHT22;11029;47.820;10.534;2022-11-18T08:54:10;5.70;82.80
21734;DHT22;11029;47.820;10.534;2022-11-18T08:56:37;5.80;82.80
21734;DHT22;11029;47.820;10.534;2022-11-18T08:59:04;5.70;82.90
21734;DHT22;11029;47.820;10.534;2022-11-18T09:01:31;5.70;82.90
21734;DHT22;11029;47.820;10.534;2022-11-18T09:03:58;5.60;83.40
21734;DHT22;11029;47.820;10.534;2022-11-18T09:06:24;5.60;83.70
21734;DHT22;11029;47.820;10.534;2022-11-18T09:08:52;5.60;83.80
21734;DHT22;11029;47.820;10.534;2022-11-18T09:11:28;5.50;84.60
21734;DHT22;11029;47.820;10.534;2022-11-18T09:13:55;5.50;84.90
21734;DHT22;11029;47.820;10.534;2022-11-18T09:16:43;5.50;85.40
21734;DHT22;11029;47.820;10.534;2022-11-18T09:19:10;5.50;85.40
21734;DHT22;11029;47.820;10.534;2022-11-18T09:21:56;5.50;84.80
21734;DHT22;11029;47.820;10.534;2022-11-18T09:24:23;5.50;84.80
21734;DHT22;11029;47.820;10.534;2022-11-18T09:26:49;5.50;84.20
21734;DHT22;11029;47.820;10.534;2022-11-18T09:29:16;5.60;84.90
21734;DHT22;11029;47.820;10.534;2022-11-18T09:31:43;5.60;83.90
21734;DHT22;11029;47.820;10.534;2022-11-18T09:34:10;5.50;84.00
21734;DHT22;11029;47.820;10.534;2022-11-18T09:36:36;5.60;84.40
21734;DHT22;11029;47.820;10.534;2022-11-18T09:39:03;5.50;84.80
21734;DHT22;11029;47.820;10.534;2022-11-18T09:41:36;5.50;84.70
21734;DHT22;11029;47.820;10.534;2022-11-18T09:49:25;5.40;84.80
21734;DHT22;11029;47.820;10.534;2022-11-18T09:51:52;5.40;84.30
21734;DHT22;11029;47.820;10.534;2022-11-18T09:57:20;5.40;83.20
21734;DHT22;11029;47.820;10.534;2022-11-18T09:59:47;5.40;83.60
21734;DHT22;11029;47.820;10.534;2022-11-18T10:04:43;5.50;83.80
21734;DHT22;11029;47.820;10.534;2022-11-18T10:07:19;5.50;83.30
21734;DHT22;11029;47.820;10.534;2022-11-18T10:09:47;5.50;83.60
21734;DHT22;11029;47.820;10.534;2022-11-18T10:22:42;5.40;85.20
21734;DHT22;11029;47.820;10.534;2022-11-18T10:25:12;5.30;85.50
21734;DHT22;11029;47.820;10.534;2022-11-18T10:27:40;5.30;85.60
21734;DHT22;11029;47.820;10.534;2022-11-18T10:32:59;5.30;85.80
21734;DHT22;11029;47.820;10.534;2022-11-18T10:37:58;5.30;86.80
21734;DHT22;11029;47.820;10.534;2022-11-18T10:40:33;5.30;86.30
21734;DHT22;11029;47.820;10.534;2022-11-18T10:43:01;5.30;86.40
21734;DHT22;11029;47.820;10.534;2022-11-18T10:45:29;5.30;86.70
21734;DHT22;11029;47.820;10.534;2022-11-18T10:48:08;5.30;87.10
21734;DHT22;11029;47.820;10.534;2022-11-18T10:50:41;5.30;86.70
21734;DHT22;11029;47.820;10.534;2022-11-18T10:53:27;5.30;86.60
21734;DHT22;11029;47.820;10.534;2022-11-18T10:55:58;5.40;86.60
21734;DHT22;11029;47.820;10.534;2022-11-18T10:58:25;5.30;86.80
21734;DHT22;11029;47.820;10.534;2022-11-18T11:01:03;5.30;87.60
21734;DHT22;11029;47.820;10.534;2022-11-18T11:03:37;5.30;87.00
21734;DHT22;11029;47.820;10.534;2022-11-18T11:08:53;5.50;86.60
21734;DHT22;11029;47.820;10.534;2022-11-18T11:11:54;5.40;86.10
21734;DHT22;11029;47.820;10.534;2022-11-18T11:19:32;5.40;86.80
21734;DHT22;11029;47.820;10.534;2022-11-18T11:22:00;5.40;87.00
21734;DHT22;11029;47.820;10.534;2022-11-18T11:24:27;5.40;85.90
21734;DHT22;11029;47.820;10.534;2022-11-18T11:27:04;5.40;86.70
21734;DHT22;11029;47.820;10.534;2022-11-18T11:35:24;5.40;85.50
21734;DHT22;11029;47.820;10.534;2022-11-18T11:37:59;5.40;86.50
21734;DHT22;11029;47.820;10.534;2022-11-18T11:48:49;5.40;87.40
21734;DHT22;11029;47.820;10.534;2022-11-18T11:58:55;5.50;86.90
21734;DHT22;11029;47.820;10.534;2022-11-18T12:01:33;5.50;86.70
21734;DHT22;11029;47.820;10.534;2022-11-18T12:04:13;5.50;86.70
21734;DHT22;11029;47.820;10.534;2022-11-18T12:06:46;5.60;87.20
21734;DHT22;11029;47.820;10.534;2022-11-18T12:09:17;5.60;87.00
21734;DHT22;11029;47.820;10.534;2022-11-18T12:11:52;5.60;86.80
21734;DHT22;11029;47.820;10.534;2022-11-18T12:16:52;5.60;87.20
21734;DHT22;11029;47.820;10.534;2022-11-18T12:19:20;5.60;86.70
21734;DHT22;11029;47.820;10.534;2022-11-18T12:26:52;5.60;87.00
21734;DHT22;11029;47.820;10.534;2022-11-18T12:31:52;5.60;86.80
21734;DHT22;11029;47.820;10.534;2022-11-18T12:36:56;5.60;86.60
21734;DHT22;11029;47.820;10.534;2022-11-18T12:42:32;5.70;86.30
21734;DHT22;11029;47.820;10.534;2022-11-18T12:47:59;5.80;85.20
21734;DHT22;11029;47.820;10.534;2022-11-18T12:50:46;5.90;85.20
21734;DHT22;11029;47.820;10.534;2022-11-18T12:53:26;6.00;84.60
21734;DHT22;11029;47.820;10.534;2022-11-18T12:55:55;6.00;85.50
21734;DHT22;11029;47.820;10.534;2022-11-18T12:58:23;6.00;84.90
21734;DHT22;11029;47.820;10.534;2022-11-18T13:01:02;6.00;85.10
21734;DHT22;11029;47.820;10.534;2022-11-18T13:06:24;5.90;84.40
21734;DHT22;11029;47.820;10.534;2022-11-18T13:08:52;6.00;83.30
21734;DHT22;11029;47.820;10.534;2022-11-18T13:11:20;6.00;84.20
21734;DHT22;11029;47.820;10.534;2022-11-18T13:14:05;6.10;84.30
21734;DHT22;11029;47.820;10.534;2022-11-18T13:16:51;6.00;83.60
21734;DHT22;11029;47.820;10.534;2022-11-18T13:19:36;6.10;83.40
21734;DHT22;11029;47.820;10.534;2022-11-18T13:22:03;6.00;84.40
21734;DHT22;11029;47.820;10.534;2022-11-18T13:24:49;6.00;84.70
21734;DHT22;11029;47.820;10.534;2022-11-18T13:28:00;6.00;85.30
21734;DHT22;11029;47.820;10.534;2022-11-18T13:30:10;6.00;84.90
21734;DHT22;11029;47.820;10.534;2022-11-18T13:32:41;6.10;84.90
21734;DHT22;11029;47.820;10.534;2022-11-18T13:35:15;6.20;85.50
21734;DHT22;11029;47.820;10.534;2022-11-18T13:37:47;6.30;85.00
21734;DHT22;11029;47.820;10.534;2022-11-18T13:40:16;6.30;83.20
21734;DHT22;11029;47.820;10.534;2022-11-18T13:42:43;6.20;83.00
21734;DHT22;11029;47.820;10.534;2022-11-18T13:45:11;6.10;83.80
21734;DHT22;11029;47.820;10.534;2022-11-18T13:47:49;6.00;84.10
21734;DHT22;11029;47.820;10.534;2022-11-18T13:50:18;6.00;85.50
21734;DHT22;11029;47.820;10.534;2022-11-18T13:55:18;5.80;85.70
21734;DHT22;11029;47.820;10.534;2022-11-18T13:57:46;5.70;85.70
21734;DHT22;11029;47.820;10.534;2022-11-18T14:00:24;5.60;85.80
21734;DHT22;11029;47.820;10.534;2022-11-18T14:02:54;5.60;87.00
21734;DHT22;11029;47.820;10.534;2022-11-18T14:05:21;5.50;84.80
21734;DHT22;11029;47.820;10.534;2022-11-18T14:07:56;5.40;85.30
21734;DHT22;11029;47.820;10.534;2022-11-18T14:10:28;5.40;85.50
21734;DHT22;11029;47.820;10.534;2022-11-18T14:12:58;5.40;85.30
21734;DHT22;11029;47.820;10.534;2022-11-18T14:17:55;5.50;85.20
21734;DHT22;11029;47.820;10.534;2022-11-18T14:20:22;5.50;85.90
21734;DHT22;11029;47.820;10.534;2022-11-18T14:22:56;5.40;85.10
21734;DHT22;11029;47.820;10.534;2022-11-18T14:25:33;5.40;86.30
21734;DHT22;11029;47.820;10.534;2022-11-18T14:33:24;5.40;85.90
21734;DHT22;11029;47.820;10.534;2022-11-18T14:35:58;5.30;85.80
21734;DHT22;11029;47.820;10.534;2022-11-18T14:41:18;5.00;86.20
21734;DHT22;11029;47.820;10.534;2022-11-18T14:44:09;5.00;87.00
21734;DHT22;11029;47.820;10.534;2022-11-18T14:46:36;5.00;87.20
21734;DHT22;11029;47.820;10.534;2022-11-18T14:49:05;5.00;86.40
21734;DHT22;11029;47.820;10.534;2022-11-18T14:51:32;5.00;86.00
21734;DHT22;11029;47.820;10.534;2022-11-18T14:53:58;5.00;84.50
21734;DHT22;11029;47.820;10.534;2022-11-18T14:56:29;4.90;84.20
21734;DHT22;11029;47.820;10.534;2022-11-18T14:58:56;4.80;84.40
21734;DHT22;11029;47.820;10.534;2022-11-18T15:01:23;4.80;85.10
21734;DHT22;11029;47.820;10.534;2022-11-18T15:03:56;4.80;84.80
21734;DHT22;11029;47.820;10.534;2022-11-18T15:06:22;4.80;85.20
21734;DHT22;11029;47.820;10.534;2022-11-18T15:08:50;4.80;85.20
21734;DHT22;11029;47.820;10.534;2022-11-18T15:11:17;4.80;85.10
21734;DHT22;11029;47.820;10.534;2022-11-18T15:13:47;4.70;85.00
21734;DHT22;11029;47.820;10.534;2022-11-18T15:16:14;4.80;84.40
21734;DHT22;11029;47.820;10.534;2022-11-18T15:18:42;4.80;83.90
21734;DHT22;11029;47.820;10.534;2022-11-18T15:21:09;4.70;84.00
21734;DHT22;11029;47.820;10.534;2022-11-18T15:23:36;4.70;83.80
21734;DHT22;11029;47.820;10.534;2022-11-18T15:26:10;4.70;83.90
21734;DHT22;11029;47.820;10.534;2022-11-18T15:28:37;4.70;84.50
21734;DHT22;11029;47.820;10.534;2022-11-18T15:31:04;4.50;84.10
21734;DHT22;11029;47.820;10.534;2022-11-18T15:33:30;4.40;84.80
21734;DHT22;11029;47.820;10.534;2022-11-18T15:35:57;4.30;83.60
21734;DHT22;11029;47.820;10.534;2022-11-18T15:38:23;4.30;84.60
21734;DHT22;11029;47.820;10.534;2022-11-18T15:40:50;4.20;85.50
21734;DHT22;11029;47.820;10.534;2022-11-18T15:43:17;4.20;85.50
21734;DHT22;11029;47.820;10.534;2022-11-18T15:45:43;4.20;85.60
21734;DHT22;11029;47.820;10.534;2022-11-18T15:48:10;4.20;86.00
21734;DHT22;11029;47.820;10.534;2022-11-18T15:50:37;4.20;85.60
21734;DHT22;11029;47.820;10.534;2022-11-18T15:53:03;4.20;86.00
21734;DHT22;11029;47.820;10.534;2022-11-18T15:55:30;4.20;85.80
21734;DHT22;11029;47.820;10.534;2022-11-18T15:57:57;4.20;85.90
21734;DHT22;11029;47.820;10.534;2022-11-18T16:00:23;4.20;85.50
21734;DHT22;11029;47.820;10.534;2022-11-18T16:02:50;4.20;85.10
21734;DHT22;11029;47.820;10.534;2022-11-18T16:05:17;4.20;85.60
21734;DHT22;11029;47.820;10.534;2022-11-18T16:07:43;4.10;86.00
21734;DHT22;11029;47.820;10.534;2022-11-18T16:10:10;4.10;86.30
21734;DHT22;11029;47.820;10.534;2022-11-18T16:12:56;4.10;86.50
21734;DHT22;11029;47.820;10.534;2022-11-18T16:15:23;4.10;87.00
21734;DHT22;11029;47.820;10.534;2022-11-18T16:18:08;4.10;87.40
21734;DHT22;11029;47.820;10.534;2022-11-18T16:20:35;4.10;87.50
21734;DHT22;11029;47.820;10.534;2022-11-18T16:23:02;4.10;87.80
21734;DHT22;11029;47.820;10.534;2022-11-18T16:25:29;4.10;88.10
21734;DHT22;11029;47.820;10.534;2022-11-18T16:27:55;4.20;88.10
21734;DHT22;11029;47.820;10.534;2022-11-18T16:30:29;4.20;88.00
21734;DHT22;11029;47.820;10.534;2022-11-18T16:33:14;4.20;88.10
21734;DHT22;11029;47.820;10.534;2022-11-18T16:35:44;4.20;88.40
21734;DHT22;11029;47.820;10.534;2022-11-18T16:38:11;4.20;88.50
21734;DHT22;11029;47.820;10.534;2022-11-18T16:40:38;4.20;88.80
21734;DHT22;11029;47.820;10.534;2022-11-18T16:43:05;4.20;88.80
21734;DHT22;11029;47.820;10.534;2022-11-18T16:45:31;4.30;89.00
21734;DHT22;11029;47.820;10.534;2022-11-18T16:47:58;4.30;89.30
21734;DHT22;11029;47.820;10.534;2022-11-18T16:50:25;4.30;89.40
21734;DHT22;11029;47.820;10.534;2022-11-18T16:52:51;4.40;89.20
21734;DHT22;11029;47.820;10.534;2022-11-18T16:55:18;4.30;89.20
21734;DHT22;11029;47.820;10.534;2022-11-18T16:57:45;4.30;89.40
21734;DHT22;11029;47.820;10.534;2022-11-18T17:00:11;4.40;89.20
21734;DHT22;11029;47.820;10.534;2022-11-18T17:02:38;4.40;89.20
21734;DHT22;11029;47.820;10.534;2022-11-18T17:05:05;4.40;89.00
21734;DHT22;11029;47.820;10.534;2022-11-18T17:07:31;4.40;89.10
21734;DHT22;11029;47.820;10.534;2022-11-18T17:10:04;4.50;89.00
21734;DHT22;11029;47.820;10.534;2022-11-18T17:12:31;4.50;89.30
21734;DHT22;11029;47.820;10.534;2022-11-18T17:14:57;4.50;89.10
21734;DHT22;11029;47.820;10.534;2022-11-18T17:17:24;4.60;88.90
21734;DHT22;11029;47.820;10.534;2022-11-18T17:19:51;4.60;88.80
21734;DHT22;11029;47.820;10.534;2022-11-18T17:22:17;4.70;88.50
21734;DHT22;11029;47.820;10.534;2022-11-18T17:24:44;4.70;88.40
21734;DHT22;11029;47.820;10.534;2022-11-18T17:27:11;4.70;88.30
21734;DHT22;11029;47.820;10.534;2022-11-18T17:29:38;4.70;88.20
21734;DHT22;11029;47.820;10.534;2022-11-18T17:32:04;4.70;87.70
21734;DHT22;11029;47.820;10.534;2022-11-18T17:34:31;4.80;87.70
21734;DHT22;11029;47.820;10.534;2022-11-18T17:36:58;4.70;87.60
21734;DHT22;11029;47.820;10.534;2022-11-18T17:39:32;4.70;87.40
21734;DHT22;11029;47.820;10.534;2022-11-18T17:41:59;4.70;87.80
21734;DHT22;11029;47.820;10.534;2022-11-18T17:44:40;4.80;87.40